Yigo, Guam
Current Conditions -  °F | °C
As of 3:58 PM on Wednesday 28 Jan 2015 (Local Time) from PGUA Reporting Station
Scattered Clouds Scattered Clouds  
Wind Chill: 27°   Ceiling: Unl
Heat Index: 30°   Visibility: 10mi
Dew Point: 24°   Wind: 9mph
Humidity: 81%   Direction: 120°ESE
Pressure: 29.8"   Gusts: NA
Location:  13.53°N, 144.89°E
Report Text: PGUA 280558Z AUTO 12008KT 10SM SCT012 27/24 A2980 RMK AO2 SLP081 T02710235 10282 20271 55011 $
Loading
Personal Weather Stations






























Interactive Weather Map New forecast layout! Learn more

10-Day Weather Forecast

Advertisements
Track Severe Weather on mobile